sensor_id;sensor_type;location;lat;lon;timestamp;P1;durP1;ratioP1;P2;durP2;ratioP2
67041;SDS011;53949;47.790;18.750;2023-04-09T00:01:21;11.48;;;7.95;;
67041;SDS011;53949;47.790;18.750;2023-04-09T00:04:24;14.77;;;8.70;;
67041;SDS011;53949;47.790;18.750;2023-04-09T00:07:27;14.77;;;9.60;;
67041;SDS011;53949;47.790;18.750;2023-04-09T00:10:30;14.35;;;8.80;;
67041;SDS011;53949;47.790;18.750;2023-04-09T00:13:33;15.45;;;8.25;;
67041;SDS011;53949;47.790;18.750;2023-04-09T00:16:41;15.63;;;9.70;;
67041;SDS011;53949;47.790;18.750;2023-04-09T00:19:44;14.52;;;9.32;;
67041;SDS011;53949;47.790;18.750;2023-04-09T00:22:48;18.05;;;9.82;;
67041;SDS011;53949;47.790;18.750;2023-04-09T00:25:51;13.35;;;9.18;;
67041;SDS011;53949;47.790;18.750;2023-04-09T00:28:54;15.18;;;9.38;;
67041;SDS011;53949;47.790;18.750;2023-04-09T00:31:57;16.17;;;9.98;;
67041;SDS011;53949;47.790;18.750;2023-04-09T00:35:01;17.77;;;10.40;;
67041;SDS011;53949;47.790;18.750;2023-04-09T00:38:04;20.40;;;11.30;;
67041;SDS011;53949;47.790;18.750;2023-04-09T00:41:07;18.92;;;11.35;;
67041;SDS011;53949;47.790;18.750;2023-04-09T00:44:11;17.90;;;10.50;;
67041;SDS011;53949;47.790;18.750;2023-04-09T00:47:14;15.35;;;10.95;;
67041;SDS011;53949;47.790;18.750;2023-04-09T00:50:17;21.00;;;11.68;;
67041;SDS011;53949;47.790;18.750;2023-04-09T00:53:21;18.85;;;11.65;;
67041;SDS011;53949;47.790;18.750;2023-04-09T00:56:24;18.12;;;11.38;;
67041;SDS011;53949;47.790;18.750;2023-04-09T00:59:28;15.27;;;10.27;;
67041;SDS011;53949;47.790;18.750;2023-04-09T01:02:32;14.23;;;10.23;;
67041;SDS011;53949;47.790;18.750;2023-04-09T01:05:37;18.77;;;10.70;;
67041;SDS011;53949;47.790;18.750;2023-04-09T01:15:36;17.00;;;9.82;;
67041;SDS011;53949;47.790;18.750;2023-04-09T01:18:43;14.43;;;8.95;;
67041;SDS011;53949;47.790;18.750;2023-04-09T01:21:53;12.25;;;8.82;;
67041;SDS011;53949;47.790;18.750;2023-04-09T01:31:25;14.25;;;8.60;;
67041;SDS011;53949;47.790;18.750;2023-04-09T01:34:30;13.18;;;8.38;;
67041;SDS011;53949;47.790;18.750;2023-04-09T01:37:34;13.05;;;8.48;;
67041;SDS011;53949;47.790;18.750;2023-04-09T01:40:37;13.07;;;8.07;;
67041;SDS011;53949;47.790;18.750;2023-04-09T01:43:40;15.75;;;9.35;;
67041;SDS011;53949;47.790;18.750;2023-04-09T01:46:48;12.88;;;8.18;;
67041;SDS011;53949;47.790;18.750;2023-04-09T01:49:52;14.90;;;8.32;;
67041;SDS011;53949;47.790;18.750;2023-04-09T01:52:55;13.07;;;8.55;;
67041;SDS011;53949;47.790;18.750;2023-04-09T01:55:59;15.27;;;9.88;;
67041;SDS011;53949;47.790;18.750;2023-04-09T01:59:03;16.33;;;9.95;;
67041;SDS011;53949;47.790;18.750;2023-04-09T02:02:18;21.15;;;12.00;;
67041;SDS011;53949;47.790;18.750;2023-04-09T02:05:25;20.52;;;12.02;;
67041;SDS011;53949;47.790;18.750;2023-04-09T02:08:30;16.45;;;10.23;;
67041;SDS011;53949;47.790;18.750;2023-04-09T02:11:39;17.57;;;10.93;;
67041;SDS011;53949;47.790;18.750;2023-04-09T02:14:46;15.38;;;9.73;;
67041;SDS011;53949;47.790;18.750;2023-04-09T02:17:53;17.25;;;9.98;;
67041;SDS011;53949;47.790;18.750;2023-04-09T02:20:57;16.35;;;9.65;;
67041;SDS011;53949;47.790;18.750;2023-04-09T02:24:01;21.35;;;12.98;;
67041;SDS011;53949;47.790;18.750;2023-04-09T02:27:04;20.45;;;11.77;;
67041;SDS011;53949;47.790;18.750;2023-04-09T02:30:08;23.60;;;13.82;;
67041;SDS011;53949;47.790;18.750;2023-04-09T02:33:11;24.60;;;14.25;;
67041;SDS011;53949;47.790;18.750;2023-04-09T02:36:15;24.83;;;14.32;;
67041;SDS011;53949;47.790;18.750;2023-04-09T02:39:18;24.55;;;13.07;;
67041;SDS011;53949;47.790;18.750;2023-04-09T02:42:21;18.02;;;11.00;;
67041;SDS011;53949;47.790;18.750;2023-04-09T02:45:24;19.87;;;11.50;;
67041;SDS011;53949;47.790;18.750;2023-04-09T02:48:28;16.10;;;10.35;;
67041;SDS011;53949;47.790;18.750;2023-04-09T02:51:33;15.35;;;9.75;;
67041;SDS011;53949;47.790;18.750;2023-04-09T02:54:38;16.35;;;9.48;;
67041;SDS011;53949;47.790;18.750;2023-04-09T02:57:41;15.65;;;8.85;;
67041;SDS011;53949;47.790;18.750;2023-04-09T03:00:44;14.87;;;8.68;;
67041;SDS011;53949;47.790;18.750;2023-04-09T03:03:48;12.80;;;8.73;;
67041;SDS011;53949;47.790;18.750;2023-04-09T03:06:52;15.20;;;9.50;;
67041;SDS011;53949;47.790;18.750;2023-04-09T03:09:55;14.55;;;8.52;;
67041;SDS011;53949;47.790;18.750;2023-04-09T03:12:58;16.52;;;10.30;;
67041;SDS011;53949;47.790;18.750;2023-04-09T03:16:01;13.62;;;9.40;;
67041;SDS011;53949;47.790;18.750;2023-04-09T03:19:05;13.50;;;9.57;;
67041;SDS011;53949;47.790;18.750;2023-04-09T03:22:10;13.05;;;7.97;;
67041;SDS011;53949;47.790;18.750;2023-04-09T03:25:13;16.23;;;9.23;;
67041;SDS011;53949;47.790;18.750;2023-04-09T03:28:16;15.90;;;9.65;;
67041;SDS011;53949;47.790;18.750;2023-04-09T03:31:20;16.87;;;10.50;;
67041;SDS011;53949;47.790;18.750;2023-04-09T03:34:23;17.40;;;10.23;;
67041;SDS011;53949;47.790;18.750;2023-04-09T03:37:27;17.27;;;10.43;;
67041;SDS011;53949;47.790;18.750;2023-04-09T03:40:32;20.20;;;10.80;;
67041;SDS011;53949;47.790;18.750;2023-04-09T03:43:35;17.90;;;11.12;;
67041;SDS011;53949;47.790;18.750;2023-04-09T03:46:38;16.58;;;10.02;;
67041;SDS011;53949;47.790;18.750;2023-04-09T03:49:42;17.65;;;10.30;;
67041;SDS011;53949;47.790;18.750;2023-04-09T03:52:46;17.85;;;10.48;;
67041;SDS011;53949;47.790;18.750;2023-04-09T03:55:49;18.08;;;10.52;;
67041;SDS011;53949;47.790;18.750;2023-04-09T03:58:53;17.98;;;11.55;;
67041;SDS011;53949;47.790;18.750;2023-04-09T04:01:57;23.33;;;11.33;;
67041;SDS011;53949;47.790;18.750;2023-04-09T04:05:02;18.85;;;11.35;;
67041;SDS011;53949;47.790;18.750;2023-04-09T04:08:05;21.35;;;12.43;;
67041;SDS011;53949;47.790;18.750;2023-04-09T04:11:09;20.00;;;11.50;;
67041;SDS011;53949;47.790;18.750;2023-04-09T04:14:12;19.65;;;11.63;;
67041;SDS011;53949;47.790;18.750;2023-04-09T04:17:16;20.70;;;13.13;;
67041;SDS011;53949;47.790;18.750;2023-04-09T04:20:20;20.10;;;11.60;;
67041;SDS011;53949;47.790;18.750;2023-04-09T04:23:24;18.42;;;11.93;;
67041;SDS011;53949;47.790;18.750;2023-04-09T04:26:27;20.67;;;11.25;;
67041;SDS011;53949;47.790;18.750;2023-04-09T04:29:31;20.12;;;11.88;;
67041;SDS011;53949;47.790;18.750;2023-04-09T04:32:35;19.40;;;11.98;;
67041;SDS011;53949;47.790;18.750;2023-04-09T04:35:39;19.55;;;11.90;;
67041;SDS011;53949;47.790;18.750;2023-04-09T04:38:42;19.27;;;11.65;;
67041;SDS011;53949;47.790;18.750;2023-04-09T04:41:47;21.35;;;12.52;;
67041;SDS011;53949;47.790;18.750;2023-04-09T04:44:51;19.27;;;11.43;;
67041;SDS011;53949;47.790;18.750;2023-04-09T04:47:59;18.80;;;11.77;;
67041;SDS011;53949;47.790;18.750;2023-04-09T04:51:02;23.27;;;13.23;;
67041;SDS011;53949;47.790;18.750;2023-04-09T04:54:06;21.90;;;12.63;;
67041;SDS011;53949;47.790;18.750;2023-04-09T04:57:09;21.98;;;11.98;;
67041;SDS011;53949;47.790;18.750;2023-04-09T05:00:13;20.85;;;12.65;;
67041;SDS011;53949;47.790;18.750;2023-04-09T05:03:16;19.83;;;11.38;;
67041;SDS011;53949;47.790;18.750;2023-04-09T05:06:20;18.10;;;12.48;;
67041;SDS011;53949;47.790;18.750;2023-04-09T05:09:23;23.02;;;13.20;;
67041;SDS011;53949;47.790;18.750;2023-04-09T05:12:30;24.83;;;14.05;;
67041;SDS011;53949;47.790;18.750;2023-04-09T05:15:36;23.83;;;13.15;;
67041;SDS011;53949;47.790;18.750;2023-04-09T05:18:41;25.60;;;14.25;;
67041;SDS011;53949;47.790;18.750;2023-04-09T05:21:44;23.35;;;13.32;;
67041;SDS011;53949;47.790;18.750;2023-04-09T05:24:52;22.65;;;13.32;;
67041;SDS011;53949;47.790;18.750;2023-04-09T05:27:56;20.10;;;12.32;;
67041;SDS011;53949;47.790;18.750;2023-04-09T05:31:00;20.92;;;12.15;;
67041;SDS011;53949;47.790;18.750;2023-04-09T05:37:09;23.40;;;13.27;;
67041;SDS011;53949;47.790;18.750;2023-04-09T05:40:13;25.00;;;14.82;;
67041;SDS011;53949;47.790;18.750;2023-04-09T05:43:17;27.15;;;14.57;;
67041;SDS011;53949;47.790;18.750;2023-04-09T05:46:24;25.48;;;15.00;;
67041;SDS011;53949;47.790;18.750;2023-04-09T05:49:29;26.95;;;14.68;;
67041;SDS011;53949;47.790;18.750;2023-04-09T05:52:32;24.60;;;14.07;;
67041;SDS011;53949;47.790;18.750;2023-04-09T05:55:36;22.83;;;14.25;;
67041;SDS011;53949;47.790;18.750;2023-04-09T05:58:39;21.77;;;12.48;;
67041;SDS011;53949;47.790;18.750;2023-04-09T06:01:42;25.05;;;15.48;;
67041;SDS011;53949;47.790;18.750;2023-04-09T06:04:46;26.20;;;15.32;;
67041;SDS011;53949;47.790;18.750;2023-04-09T06:07:49;27.20;;;16.67;;
67041;SDS011;53949;47.790;18.750;2023-04-09T06:10:52;26.25;;;16.75;;
67041;SDS011;53949;47.790;18.750;2023-04-09T06:13:55;30.75;;;17.27;;
67041;SDS011;53949;47.790;18.750;2023-04-09T06:16:58;28.60;;;17.80;;
67041;SDS011;53949;47.790;18.750;2023-04-09T06:20:01;28.00;;;17.12;;
67041;SDS011;53949;47.790;18.750;2023-04-09T06:23:05;32.75;;;18.83;;
67041;SDS011;53949;47.790;18.750;2023-04-09T06:26:08;32.90;;;19.20;;
67041;SDS011;53949;47.790;18.750;2023-04-09T06:29:11;33.15;;;18.65;;
67041;SDS011;53949;47.790;18.750;2023-04-09T06:32:15;34.08;;;17.83;;
67041;SDS011;53949;47.790;18.750;2023-04-09T06:35:18;32.22;;;18.83;;
67041;SDS011;53949;47.790;18.750;2023-04-09T06:38:21;32.33;;;18.98;;
67041;SDS011;53949;47.790;18.750;2023-04-09T06:41:24;32.05;;;18.40;;
67041;SDS011;53949;47.790;18.750;2023-04-09T06:44:28;29.33;;;17.83;;
67041;SDS011;53949;47.790;18.750;2023-04-09T06:47:31;31.80;;;18.58;;
67041;SDS011;53949;47.790;18.750;2023-04-09T06:50:34;35.58;;;18.52;;
67041;SDS011;53949;47.790;18.750;2023-04-09T06:53:37;28.55;;;16.42;;
67041;SDS011;53949;47.790;18.750;2023-04-09T06:56:40;24.42;;;16.23;;
67041;SDS011;53949;47.790;18.750;2023-04-09T06:59:43;26.73;;;15.32;;
67041;SDS011;53949;47.790;18.750;2023-04-09T07:02:46;26.52;;;14.38;;
67041;SDS011;53949;47.790;18.750;2023-04-09T07:05:50;24.63;;;14.87;;
67041;SDS011;53949;47.790;18.750;2023-04-09T07:08:53;27.25;;;16.10;;
67041;SDS011;53949;47.790;18.750;2023-04-09T07:11:57;28.25;;;16.20;;
67041;SDS011;53949;47.790;18.750;2023-04-09T07:15:01;25.90;;;14.57;;
67041;SDS011;53949;47.790;18.750;2023-04-09T07:18:05;24.30;;;14.07;;
67041;SDS011;53949;47.790;18.750;2023-04-09T07:21:08;20.98;;;13.35;;
67041;SDS011;53949;47.790;18.750;2023-04-09T07:24:12;19.10;;;13.00;;
67041;SDS011;53949;47.790;18.750;2023-04-09T07:27:14;26.30;;;13.68;;
67041;SDS011;53949;47.790;18.750;2023-04-09T07:30:18;19.92;;;12.65;;
67041;SDS011;53949;47.790;18.750;2023-04-09T07:33:21;21.87;;;13.70;;
67041;SDS011;53949;47.790;18.750;2023-04-09T07:36:24;24.85;;;13.45;;
67041;SDS011;53949;47.790;18.750;2023-04-09T07:39:28;24.45;;;13.45;;
67041;SDS011;53949;47.790;18.750;2023-04-09T07:42:31;18.58;;;12.02;;
67041;SDS011;53949;47.790;18.750;2023-04-09T07:45:34;20.62;;;12.48;;
67041;SDS011;53949;47.790;18.750;2023-04-09T07:48:38;21.67;;;12.95;;
67041;SDS011;53949;47.790;18.750;2023-04-09T07:51:41;17.70;;;11.50;;
67041;SDS011;53949;47.790;18.750;2023-04-09T07:54:45;15.10;;;9.75;;
67041;SDS011;53949;47.790;18.750;2023-04-09T07:57:48;17.75;;;10.32;;
67041;SDS011;53949;47.790;18.750;2023-04-09T08:00:51;15.82;;;10.05;;
67041;SDS011;53949;47.790;18.750;2023-04-09T08:03:55;14.73;;;9.48;;
67041;SDS011;53949;47.790;18.750;2023-04-09T08:06:58;16.02;;;9.70;;
67041;SDS011;53949;47.790;18.750;2023-04-09T08:10:02;14.50;;;9.32;;
67041;SDS011;53949;47.790;18.750;2023-04-09T08:13:05;14.13;;;8.65;;
67041;SDS011;53949;47.790;18.750;2023-04-09T08:16:10;12.90;;;9.18;;
67041;SDS011;53949;47.790;18.750;2023-04-09T08:19:14;12.18;;;7.30;;
67041;SDS011;53949;47.790;18.750;2023-04-09T08:22:18;10.20;;;6.82;;
67041;SDS011;53949;47.790;18.750;2023-04-09T08:25:21;10.20;;;6.70;;
67041;SDS011;53949;47.790;18.750;2023-04-09T08:28:25;9.88;;;6.93;;
67041;SDS011;53949;47.790;18.750;2023-04-09T08:31:28;9.65;;;7.37;;
67041;SDS011;53949;47.790;18.750;2023-04-09T08:34:31;10.10;;;6.53;;
67041;SDS011;53949;47.790;18.750;2023-04-09T08:37:34;9.00;;;6.47;;
67041;SDS011;53949;47.790;18.750;2023-04-09T08:40:38;9.07;;;6.53;;
67041;SDS011;53949;47.790;18.750;2023-04-09T08:43:41;8.85;;;6.22;;
67041;SDS011;53949;47.790;18.750;2023-04-09T08:46:59;8.38;;;6.12;;
67041;SDS011;53949;47.790;18.750;2023-04-09T08:50:03;7.90;;;5.72;;
67041;SDS011;53949;47.790;18.750;2023-04-09T08:53:07;8.00;;;5.50;;
67041;SDS011;53949;47.790;18.750;2023-04-09T08:56:11;6.10;;;4.60;;
67041;SDS011;53949;47.790;18.750;2023-04-09T08:59:16;7.43;;;5.68;;
67041;SDS011;53949;47.790;18.750;2023-04-09T09:02:22;8.35;;;5.40;;
67041;SDS011;53949;47.790;18.750;2023-04-09T09:05:38;7.00;;;5.18;;
67041;SDS011;53949;47.790;18.750;2023-04-09T09:08:42;7.35;;;5.43;;
67041;SDS011;53949;47.790;18.750;2023-04-09T09:11:46;8.05;;;6.20;;
67041;SDS011;53949;47.790;18.750;2023-04-09T09:14:51;8.18;;;5.12;;
67041;SDS011;53949;47.790;18.750;2023-04-09T09:17:55;6.82;;;5.20;;
67041;SDS011;53949;47.790;18.750;2023-04-09T09:24:16;7.47;;;5.68;;
67041;SDS011;53949;47.790;18.750;2023-04-09T09:30:39;7.50;;;5.90;;
67041;SDS011;53949;47.790;18.750;2023-04-09T09:33:43;8.35;;;5.80;;
67041;SDS011;53949;47.790;18.750;2023-04-09T09:36:46;7.30;;;5.50;;
67041;SDS011;53949;47.790;18.750;2023-04-09T09:39:49;8.07;;;5.93;;
67041;SDS011;53949;47.790;18.750;2023-04-09T09:42:53;7.82;;;5.25;;
67041;SDS011;53949;47.790;18.750;2023-04-09T09:45:57;7.63;;;5.60;;
67041;SDS011;53949;47.790;18.750;2023-04-09T09:49:00;6.65;;;5.18;;
67041;SDS011;53949;47.790;18.750;2023-04-09T09:52:05;6.87;;;5.32;;
67041;SDS011;53949;47.790;18.750;2023-04-09T09:55:14;7.15;;;5.07;;
67041;SDS011;53949;47.790;18.750;2023-04-09T09:58:31;6.40;;;4.55;;
67041;SDS011;53949;47.790;18.750;2023-04-09T10:01:43;5.70;;;4.17;;
67041;SDS011;53949;47.790;18.750;2023-04-09T10:04:49;6.95;;;5.32;;
67041;SDS011;53949;47.790;18.750;2023-04-09T10:07:54;6.18;;;5.05;;
67041;SDS011;53949;47.790;18.750;2023-04-09T10:10:59;5.07;;;4.57;;
67041;SDS011;53949;47.790;18.750;2023-04-09T10:14:03;4.97;;;4.50;;
67041;SDS011;53949;47.790;18.750;2023-04-09T10:17:09;4.55;;;4.07;;
67041;SDS011;53949;47.790;18.750;2023-04-09T10:20:20;5.85;;;3.80;;
67041;SDS011;53949;47.790;18.750;2023-04-09T10:23:30;5.37;;;4.10;;
67041;SDS011;53949;47.790;18.750;2023-04-09T10:26:34;4.30;;;3.78;;
67041;SDS011;53949;47.790;18.750;2023-04-09T10:29:43;6.70;;;5.05;;
67041;SDS011;53949;47.790;18.750;2023-04-09T10:32:49;5.85;;;4.43;;
67041;SDS011;53949;47.790;18.750;2023-04-09T10:35:59;7.00;;;4.57;;
67041;SDS011;53949;47.790;18.750;2023-04-09T10:39:10;5.35;;;4.60;;
67041;SDS011;53949;47.790;18.750;2023-04-09T10:45:46;5.97;;;4.95;;
67041;SDS011;53949;47.790;18.750;2023-04-09T10:52:19;4.90;;;4.32;;
67041;SDS011;53949;47.790;18.750;2023-04-09T10:55:38;5.12;;;4.55;;
67041;SDS011;53949;47.790;18.750;2023-04-09T10:58:42;4.97;;;4.47;;
67041;SDS011;53949;47.790;18.750;2023-04-09T11:01:52;6.32;;;4.70;;
67041;SDS011;53949;47.790;18.750;2023-04-09T11:08:22;7.25;;;4.87;;
67041;SDS011;53949;47.790;18.750;2023-04-09T11:11:25;6.07;;;4.60;;
67041;SDS011;53949;47.790;18.750;2023-04-09T11:14:30;5.15;;;4.35;;
67041;SDS011;53949;47.790;18.750;2023-04-09T11:17:35;6.32;;;4.57;;
67041;SDS011;53949;47.790;18.750;2023-04-09T11:20:39;5.45;;;4.72;;
67041;SDS011;53949;47.790;18.750;2023-04-09T11:23:48;6.68;;;4.57;;
67041;SDS011;53949;47.790;18.750;2023-04-09T11:26:55;5.95;;;4.43;;
67041;SDS011;53949;47.790;18.750;2023-04-09T11:29:58;7.27;;;4.53;;
67041;SDS011;53949;47.790;18.750;2023-04-09T11:33:02;5.72;;;4.75;;
67041;SDS011;53949;47.790;18.750;2023-04-09T11:36:07;5.22;;;4.40;;
67041;SDS011;53949;47.790;18.750;2023-04-09T11:39:10;5.15;;;4.10;;
67041;SDS011;53949;47.790;18.750;2023-04-09T11:42:14;5.18;;;4.43;;
67041;SDS011;53949;47.790;18.750;2023-04-09T11:45:18;7.03;;;5.28;;
67041;SDS011;53949;47.790;18.750;2023-04-09T11:48:23;5.32;;;4.57;;
67041;SDS011;53949;47.790;18.750;2023-04-09T11:51:26;7.80;;;5.40;;
67041;SDS011;53949;47.790;18.750;2023-04-09T11:54:33;7.30;;;4.75;;
67041;SDS011;53949;47.790;18.750;2023-04-09T11:57:41;6.10;;;4.60;;
67041;SDS011;53949;47.790;18.750;2023-04-09T12:00:45;5.25;;;4.03;;
67041;SDS011;53949;47.790;18.750;2023-04-09T12:03:54;5.37;;;4.65;;
67041;SDS011;53949;47.790;18.750;2023-04-09T12:06:58;6.12;;;4.62;;
67041;SDS011;53949;47.790;18.750;2023-04-09T12:10:08;5.20;;;4.25;;
67041;SDS011;53949;47.790;18.750;2023-04-09T12:13:11;6.65;;;4.90;;
67041;SDS011;53949;47.790;18.750;2023-04-09T12:16:17;5.95;;;4.72;;
67041;SDS011;53949;47.790;18.750;2023-04-09T12:19:24;7.65;;;5.10;;
67041;SDS011;53949;47.790;18.750;2023-04-09T12:25:30;5.68;;;4.82;;
67041;SDS011;53949;47.790;18.750;2023-04-09T12:28:34;5.72;;;4.70;;
67041;SDS011;53949;47.790;18.750;2023-04-09T12:31:37;6.70;;;4.87;;
67041;SDS011;53949;47.790;18.750;2023-04-09T12:34:40;5.87;;;4.68;;
67041;SDS011;53949;47.790;18.750;2023-04-09T12:37:43;8.15;;;5.40;;
67041;SDS011;53949;47.790;18.750;2023-04-09T12:40:46;6.68;;;5.03;;
67041;SDS011;53949;47.790;18.750;2023-04-09T12:43:49;5.93;;;4.85;;
67041;SDS011;53949;47.790;18.750;2023-04-09T12:46:53;5.97;;;4.68;;
67041;SDS011;53949;47.790;18.750;2023-04-09T12:49:56;6.10;;;4.53;;
67041;SDS011;53949;47.790;18.750;2023-04-09T12:53:00;6.03;;;4.80;;
67041;SDS011;53949;47.790;18.750;2023-04-09T12:56:06;5.25;;;4.68;;
67041;SDS011;53949;47.790;18.750;2023-04-09T12:59:17;5.43;;;4.20;;
67041;SDS011;53949;47.790;18.750;2023-04-09T13:02:20;5.53;;;4.15;;
67041;SDS011;53949;47.790;18.750;2023-04-09T13:05:24;7.28;;;4.70;;
67041;SDS011;53949;47.790;18.750;2023-04-09T13:08:27;5.12;;;4.50;;
67041;SDS011;53949;47.790;18.750;2023-04-09T13:11:31;5.13;;;4.60;;
67041;SDS011;53949;47.790;18.750;2023-04-09T13:14:34;5.87;;;4.82;;
67041;SDS011;53949;47.790;18.750;2023-04-09T13:17:38;7.07;;;5.67;;
67041;SDS011;53949;47.790;18.750;2023-04-09T13:20:41;6.53;;;5.72;;
67041;SDS011;53949;47.790;18.750;2023-04-09T13:23:44;5.60;;;4.80;;
67041;SDS011;53949;47.790;18.750;2023-04-09T13:26:47;7.60;;;5.22;;
67041;SDS011;53949;47.790;18.750;2023-04-09T13:29:50;5.25;;;4.70;;
67041;SDS011;53949;47.790;18.750;2023-04-09T13:32:53;5.22;;;4.70;;
67041;SDS011;53949;47.790;18.750;2023-04-09T13:35:57;6.47;;;4.93;;
67041;SDS011;53949;47.790;18.750;2023-04-09T13:39:00;5.62;;;4.78;;
67041;SDS011;53949;47.790;18.750;2023-04-09T13:42:07;6.18;;;5.05;;
67041;SDS011;53949;47.790;18.750;2023-04-09T13:45:15;5.53;;;4.90;;
67041;SDS011;53949;47.790;18.750;2023-04-09T13:48:19;6.53;;;4.53;;
67041;SDS011;53949;47.790;18.750;2023-04-09T13:51:23;6.68;;;4.85;;
67041;SDS011;53949;47.790;18.750;2023-04-09T13:57:30;5.45;;;4.70;;
67041;SDS011;53949;47.790;18.750;2023-04-09T14:00:34;5.55;;;4.45;;
67041;SDS011;53949;47.790;18.750;2023-04-09T14:03:38;5.80;;;4.40;;
67041;SDS011;53949;47.790;18.750;2023-04-09T14:06:43;4.62;;;4.07;;
67041;SDS011;53949;47.790;18.750;2023-04-09T14:09:47;5.62;;;4.72;;
67041;SDS011;53949;47.790;18.750;2023-04-09T14:12:52;6.43;;;4.60;;
67041;SDS011;53949;47.790;18.750;2023-04-09T14:15:56;4.93;;;4.07;;
67041;SDS011;53949;47.790;18.750;2023-04-09T14:19:01;5.72;;;4.85;;
67041;SDS011;53949;47.790;18.750;2023-04-09T14:22:05;4.90;;;4.22;;
67041;SDS011;53949;47.790;18.750;2023-04-09T14:25:10;4.50;;;4.07;;
67041;SDS011;53949;47.790;18.750;2023-04-09T14:28:13;4.93;;;3.90;;
67041;SDS011;53949;47.790;18.750;2023-04-09T14:31:16;5.15;;;4.18;;
67041;SDS011;53949;47.790;18.750;2023-04-09T14:34:23;5.20;;;4.45;;
67041;SDS011;53949;47.790;18.750;2023-04-09T14:37:26;6.40;;;5.07;;
67041;SDS011;53949;47.790;18.750;2023-04-09T14:40:30;6.43;;;4.62;;
67041;SDS011;53949;47.790;18.750;2023-04-09T14:43:33;5.72;;;4.35;;
67041;SDS011;53949;47.790;18.750;2023-04-09T14:46:36;4.57;;;3.95;;
67041;SDS011;53949;47.790;18.750;2023-04-09T14:49:39;6.50;;;5.20;;
67041;SDS011;53949;47.790;18.750;2023-04-09T14:52:46;6.12;;;4.28;;
67041;SDS011;53949;47.790;18.750;2023-04-09T14:55:49;4.65;;;4.15;;
67041;SDS011;53949;47.790;18.750;2023-04-09T14:58:52;5.40;;;3.97;;
67041;SDS011;53949;47.790;18.750;2023-04-09T15:01:56;5.70;;;4.65;;
67041;SDS011;53949;47.790;18.750;2023-04-09T15:05:00;9.05;;;4.55;;
67041;SDS011;53949;47.790;18.750;2023-04-09T15:08:05;5.20;;;4.40;;
67041;SDS011;53949;47.790;18.750;2023-04-09T15:11:13;6.78;;;4.93;;
67041;SDS011;53949;47.790;18.750;2023-04-09T15:14:19;6.10;;;4.70;;
67041;SDS011;53949;47.790;18.750;2023-04-09T15:17:23;6.07;;;4.62;;
67041;SDS011;53949;47.790;18.750;2023-04-09T15:20:27;7.35;;;5.30;;
67041;SDS011;53949;47.790;18.750;2023-04-09T15:23:31;5.90;;;4.72;;
67041;SDS011;53949;47.790;18.750;2023-04-09T15:26:37;7.03;;;5.50;;
67041;SDS011;53949;47.790;18.750;2023-04-09T15:29:40;7.05;;;5.35;;
67041;SDS011;53949;47.790;18.750;2023-04-09T15:32:43;6.45;;;4.93;;
67041;SDS011;53949;47.790;18.750;2023-04-09T15:35:49;6.72;;;5.12;;
67041;SDS011;53949;47.790;18.750;2023-04-09T15:38:53;7.05;;;5.32;;
67041;SDS011;53949;47.790;18.750;2023-04-09T15:41:56;6.90;;;4.93;;
67041;SDS011;53949;47.790;18.750;2023-04-09T15:44:59;7.72;;;5.37;;
67041;SDS011;53949;47.790;18.750;2023-04-09T15:48:02;8.27;;;5.60;;
67041;SDS011;53949;47.790;18.750;2023-04-09T15:51:06;7.95;;;6.05;;
67041;SDS011;53949;47.790;18.750;2023-04-09T15:54:10;10.07;;;7.00;;
67041;SDS011;53949;47.790;18.750;2023-04-09T15:57:13;9.88;;;7.00;;
67041;SDS011;53949;47.790;18.750;2023-04-09T16:00:17;9.95;;;6.70;;
67041;SDS011;53949;47.790;18.750;2023-04-09T16:03:20;9.80;;;6.75;;
67041;SDS011;53949;47.790;18.750;2023-04-09T16:06:23;10.00;;;7.45;;
67041;SDS011;53949;47.790;18.750;2023-04-09T16:09:27;11.45;;;7.90;;
67041;SDS011;53949;47.790;18.750;2023-04-09T16:12:30;12.20;;;7.12;;
67041;SDS011;53949;47.790;18.750;2023-04-09T16:15:33;10.48;;;7.18;;
67041;SDS011;53949;47.790;18.750;2023-04-09T16:18:37;10.98;;;7.07;;
67041;SDS011;53949;47.790;18.750;2023-04-09T16:21:40;9.75;;;6.65;;
67041;SDS011;53949;47.790;18.750;2023-04-09T16:24:46;10.02;;;6.93;;
67041;SDS011;53949;47.790;18.750;2023-04-09T16:27:52;10.63;;;7.12;;
67041;SDS011;53949;47.790;18.750;2023-04-09T16:30:56;11.45;;;7.32;;
67041;SDS011;53949;47.790;18.750;2023-04-09T16:34:02;8.18;;;6.35;;
67041;SDS011;53949;47.790;18.750;2023-04-09T16:37:04;9.00;;;6.62;;
67041;SDS011;53949;47.790;18.750;2023-04-09T16:40:09;9.43;;;6.55;;
67041;SDS011;53949;47.790;18.750;2023-04-09T16:43:12;10.45;;;7.22;;
67041;SDS011;53949;47.790;18.750;2023-04-09T16:46:16;12.37;;;7.22;;
67041;SDS011;53949;47.790;18.750;2023-04-09T16:49:19;11.20;;;7.00;;
67041;SDS011;53949;47.790;18.750;2023-04-09T16:52:22;8.65;;;6.43;;
67041;SDS011;53949;47.790;18.750;2023-04-09T16:55:25;13.32;;;7.32;;
67041;SDS011;53949;47.790;18.750;2023-04-09T16:58:29;11.73;;;7.35;;
67041;SDS011;53949;47.790;18.750;2023-04-09T17:01:32;11.05;;;7.68;;
67041;SDS011;53949;47.790;18.750;2023-04-09T17:04:37;13.18;;;8.35;;
67041;SDS011;53949;47.790;18.750;2023-04-09T17:07:40;14.85;;;8.35;;
67041;SDS011;53949;47.790;18.750;2023-04-09T17:10:44;13.88;;;8.32;;
67041;SDS011;53949;47.790;18.750;2023-04-09T17:13:47;18.02;;;8.98;;
67041;SDS011;53949;47.790;18.750;2023-04-09T17:16:51;16.08;;;9.30;;
67041;SDS011;53949;47.790;18.750;2023-04-09T17:19:55;14.90;;;8.13;;
67041;SDS011;53949;47.790;18.750;2023-04-09T17:23:00;15.23;;;8.73;;
67041;SDS011;53949;47.790;18.750;2023-04-09T17:26:03;14.87;;;9.18;;
67041;SDS011;53949;47.790;18.750;2023-04-09T17:29:06;14.05;;;9.45;;
67041;SDS011;53949;47.790;18.750;2023-04-09T17:32:09;13.65;;;9.35;;
67041;SDS011;53949;47.790;18.750;2023-04-09T17:35:12;14.82;;;10.23;;
67041;SDS011;53949;47.790;18.750;2023-04-09T17:38:15;15.13;;;9.15;;
67041;SDS011;53949;47.790;18.750;2023-04-09T17:41:23;17.05;;;9.57;;
67041;SDS011;53949;47.790;18.750;2023-04-09T17:44:26;13.85;;;8.65;;
67041;SDS011;53949;47.790;18.750;2023-04-09T17:47:29;15.63;;;9.43;;
67041;SDS011;53949;47.790;18.750;2023-04-09T17:50:35;16.83;;;9.57;;
67041;SDS011;53949;47.790;18.750;2023-04-09T17:53:40;15.38;;;9.32;;
67041;SDS011;53949;47.790;18.750;2023-04-09T17:56:43;19.67;;;10.98;;
67041;SDS011;53949;47.790;18.750;2023-04-09T17:59:47;21.48;;;12.02;;
67041;SDS011;53949;47.790;18.750;2023-04-09T18:02:51;22.62;;;11.88;;
67041;SDS011;53949;47.790;18.750;2023-04-09T18:05:57;21.10;;;11.82;;
67041;SDS011;53949;47.790;18.750;2023-04-09T18:09:02;19.00;;;11.05;;
67041;SDS011;53949;47.790;18.750;2023-04-09T18:12:05;22.60;;;12.07;;
67041;SDS011;53949;47.790;18.750;2023-04-09T18:15:08;20.25;;;11.65;;
67041;SDS011;53949;47.790;18.750;2023-04-09T18:18:12;18.37;;;11.25;;
67041;SDS011;53949;47.790;18.750;2023-04-09T18:21:15;17.62;;;11.43;;
67041;SDS011;53949;47.790;18.750;2023-04-09T18:24:19;17.00;;;10.02;;
67041;SDS011;53949;47.790;18.750;2023-04-09T18:27:22;16.65;;;10.80;;
67041;SDS011;53949;47.790;18.750;2023-04-09T18:30:26;16.23;;;9.40;;
67041;SDS011;53949;47.790;18.750;2023-04-09T18:33:29;14.02;;;9.95;;
67041;SDS011;53949;47.790;18.750;2023-04-09T18:36:32;15.40;;;9.40;;
67041;SDS011;53949;47.790;18.750;2023-04-09T18:39:35;14.10;;;9.93;;